Dades de l'estació automàtica Baldomar

?
?
Resum diari 22:00 TU
Dades diàries de l'estació meteorològica
Temperatura mitjana 19.3 °C
Temperatura màxima 27.1 °C 14:29 TU
Temperatura mínima 11.3 °C 5:37 TU
Humitat relativa mitjana 66%
Precipitació acumulada 0.0 mm
Ratxa màxima del vent (2 m) 29.9 km/h - 199º 14:23 TU
Irradiació solar global 18.7 MJ/m2

El tram horari està expressat en Temps Universal (TU). Cal sumar una hora en horari d'hivern i dues en horari d'estiu per passar a l'hora oficial.

Baldomar

Metadades estació meteorol´gica
Municipi Artesa de Segre
Comarca Noguera
Altitud 366 m
Data alta 24.10.2006
Estat actual Operativa
Dades de període
Període
TU
TM
°C
TX
°C
TN
°C
HRM
%
PPT
mm
VVM (2 m)
km/h
DVM (2 m)
graus
VVX (2 m)
km/h
RS
W/m2
00:00 - 00:30 14.5 14.6 14.4 89 0.0 1.8 310 4.0 0
00:30 - 01:00 14.2 14.6 13.8 91 0.0 1.8 80 5.0 0
01:00 - 01:30 14.0 14.1 13.8 90 0.0 0.7 20 3.2 0
01:30 - 02:00 13.6 14.0 13.4 92 0.0 3.2 36 7.9 0
02:00 - 02:30 13.5 13.9 13.1 91 0.0 1.4 190 9.0 0
02:30 - 03:00 13.1 13.5 12.5 92 0.0 1.8 79 4.3 0
03:00 - 03:30 12.8 13.1 12.6 94 0.0 1.8 10 2.9 0
03:30 - 04:00 12.6 13.0 12.3 94 0.0 2.2 40 4.7 0
04:00 - 04:30 12.5 12.9 12.0 94 0.0 1.4 341 4.0 0
04:30 - 05:00 11.8 12.0 11.7 97 0.0 0.7 107 2.9 0
05:00 - 05:30 11.9 12.1 11.6 97 0.0 1.4 118 4.7 0
05:30 - 06:00 11.6 11.8 11.3 98 0.0 0.7 28 3.2 4
06:00 - 06:30 12.0 12.3 11.6 97 0.0 1.8 261 5.0 55
06:30 - 07:00 12.3 13.6 11.6 96 0.0 2.5 298 5.0 151
07:00 - 07:30 14.2 14.9 13.6 88 0.0 2.2 184 6.1 228
07:30 - 08:00 15.7 17.0 14.6 81 0.0 1.8 212 6.8 316
08:00 - 08:30 17.6 18.4 16.4 71 0.0 2.5 161 7.6 404
08:30 - 09:00 19.2 20.2 18.0 65 0.0 1.8 174 6.1 486
09:00 - 09:30 20.9 21.7 20.4 59 0.0 3.2 175 7.2 564
09:30 - 10:00 21.9 22.8 21.5 58 0.0 5.0 168 12.6 627
10:00 - 10:30 23.3 23.6 23.0 53 0.0 7.9 209 19.4 675
10:30 - 11:00 23.9 24.4 23.3 49 0.0 9.0 223 20.2 717
11:00 - 11:30 24.2 25.1 23.6 46 0.0 13.0 204 23.0 741
11:30 - 12:00 25.4 26.1 25.0 41 0.0 10.4 216 26.3 743
12:00 - 12:30 25.5 26.0 24.9 41 0.0 10.8 215 27.0 740
12:30 - 13:00 25.9 26.2 25.5 40 0.0 13.0 208 26.3 716
13:00 - 13:30 26.2 26.7 25.9 39 0.0 13.3 203 23.4 682
13:30 - 14:00 26.5 26.8 26.2 37 0.0 12.6 217 25.6 639
14:00 - 14:30 26.7 27.1 26.5 36 0.0 15.5 215 29.9 590
14:30 - 15:00 26.8 27.1 26.5 36 0.0 12.2 223 25.6 512
15:00 - 15:30 25.6 27.0 24.8 39 0.0 12.6 221 24.5 257
15:30 - 16:00 25.2 25.5 24.8 41 0.0 8.3 236 21.6 245
16:00 - 16:30 24.7 24.9 24.4 44 0.0 6.5 245 20.9 142
16:30 - 17:00 24.7 25.0 24.4 44 0.0 4.3 257 13.7 133
17:00 - 17:30 23.9 24.5 23.3 46 0.0 3.6 249 11.2 35
17:30 - 18:00 22.9 23.3 22.6 48 0.0 3.6 271 11.9 5
18:00 - 18:30 22.0 22.6 21.1 51 0.0 2.5 282 7.9 0
18:30 - 19:00 21.5 21.7 21.2 54 0.0 3.2 301 6.8 0
19:00 - 19:30 20.7 21.3 20.4 59 0.0 2.9 136 5.0 0
19:30 - 20:00 20.2 20.5 20.0 59 0.0 1.4 203 4.3 0
20:00 - 20:30 19.9 20.1 19.5 62 0.0 2.5 64 7.2 0
20:30 - 21:00 19.4 19.8 19.1 64 0.0 1.8 75 6.1 0
21:00 - 21:30 18.9 19.5 18.1 65 0.0 2.5 69 5.8 0
21:30 - 22:00 18.2 18.5 18.0 68 0.0 1.1 6 2.9 0
22:00 - 22:30 17.9 18.4 17.1 70 0.0 0.7 353 4.3 0

Les dades en taronja només han passat un control de qualitat automàtic. Resta pendent la seva validació definitiva.